sensor_id;sensor_type;location;lat;lon;timestamp;temperature;humidity
70947;DHT22;58605;48.700;8.760;2022-11-11T00:01:12;5.20;99.90
70947;DHT22;58605;48.700;8.760;2022-11-11T00:03:38;5.10;99.90
70947;DHT22;58605;48.700;8.760;2022-11-11T00:06:05;5.00;99.90
70947;DHT22;58605;48.700;8.760;2022-11-11T00:08:32;5.00;99.90
70947;DHT22;58605;48.700;8.760;2022-11-11T00:11:02;5.10;99.90
70947;DHT22;58605;48.700;8.760;2022-11-11T00:13:29;5.20;99.90
70947;DHT22;58605;48.700;8.760;2022-11-11T00:16:02;5.40;99.90
70947;DHT22;58605;48.700;8.760;2022-11-11T00:18:30;5.40;99.90
70947;DHT22;58605;48.700;8.760;2022-11-11T00:21:15;5.30;99.90
70947;DHT22;58605;48.700;8.760;2022-11-11T00:23:59;5.30;99.90
70947;DHT22;58605;48.700;8.760;2022-11-11T00:26:44;5.20;99.90
70947;DHT22;58605;48.700;8.760;2022-11-11T00:29:10;5.10;99.90
70947;DHT22;58605;48.700;8.760;2022-11-11T00:31:36;5.00;99.90
70947;DHT22;58605;48.700;8.760;2022-11-11T00:34:24;5.00;99.90
70947;DHT22;58605;48.700;8.760;2022-11-11T00:36:50;5.00;99.90
70947;DHT22;58605;48.700;8.760;2022-11-11T00:39:15;4.90;99.90
70947;DHT22;58605;48.700;8.760;2022-11-11T00:41:41;4.90;99.90
70947;DHT22;58605;48.700;8.760;2022-11-11T00:44:07;4.80;99.90
70947;DHT22;58605;48.700;8.760;2022-11-11T00:46:33;4.80;99.90
70947;DHT22;58605;48.700;8.760;2022-11-11T00:49:18;4.80;99.90
70947;DHT22;58605;48.700;8.760;2022-11-11T00:52:04;4.90;99.90
70947;DHT22;58605;48.700;8.760;2022-11-11T00:54:29;4.90;99.90
70947;DHT22;58605;48.700;8.760;2022-11-11T00:56:55;4.90;99.90
70947;DHT22;58605;48.700;8.760;2022-11-11T00:59:21;5.00;99.90
70947;DHT22;58605;48.700;8.760;2022-11-11T01:01:47;4.90;99.90
70947;DHT22;58605;48.700;8.760;2022-11-11T01:04:13;4.80;99.90
70947;DHT22;58605;48.700;8.760;2022-11-11T01:06:39;4.70;99.90
70947;DHT22;58605;48.700;8.760;2022-11-11T01:09:07;4.60;99.90
70947;DHT22;58605;48.700;8.760;2022-11-11T01:11:33;4.50;99.90
70947;DHT22;58605;48.700;8.760;2022-11-11T01:13:59;4.50;99.90
70947;DHT22;58605;48.700;8.760;2022-11-11T01:16:25;4.50;99.90
70947;DHT22;58605;48.700;8.760;2022-11-11T01:18:53;4.40;99.90
70947;DHT22;58605;48.700;8.760;2022-11-11T01:21:20;4.50;99.90
70947;DHT22;58605;48.700;8.760;2022-11-11T01:23:47;4.40;99.90
70947;DHT22;58605;48.700;8.760;2022-11-11T01:26:17;4.40;99.90
70947;DHT22;58605;48.700;8.760;2022-11-11T01:28:44;4.40;99.90
70947;DHT22;58605;48.700;8.760;2022-11-11T01:31:12;4.40;99.90
70947;DHT22;58605;48.700;8.760;2022-11-11T01:33:39;4.40;99.90
70947;DHT22;58605;48.700;8.760;2022-11-11T01:36:06;4.30;99.90
70947;DHT22;58605;48.700;8.760;2022-11-11T01:38:33;4.40;99.90
70947;DHT22;58605;48.700;8.760;2022-11-11T01:40:59;4.40;99.90
70947;DHT22;58605;48.700;8.760;2022-11-11T01:43:26;4.40;99.90
70947;DHT22;58605;48.700;8.760;2022-11-11T01:45:56;4.40;99.90
70947;DHT22;58605;48.700;8.760;2022-11-11T01:48:28;4.30;99.90
70947;DHT22;58605;48.700;8.760;2022-11-11T01:51:20;4.30;99.90
70947;DHT22;58605;48.700;8.760;2022-11-11T01:53:54;4.10;99.90
70947;DHT22;58605;48.700;8.760;2022-11-11T01:56:21;4.00;99.90
70947;DHT22;58605;48.700;8.760;2022-11-11T01:58:50;4.00;99.90
70947;DHT22;58605;48.700;8.760;2022-11-11T02:04:27;3.90;99.90
70947;DHT22;58605;48.700;8.760;2022-11-11T02:07:12;4.00;99.90
70947;DHT22;58605;48.700;8.760;2022-11-11T02:09:44;4.00;99.90
70947;DHT22;58605;48.700;8.760;2022-11-11T02:12:11;4.10;99.90
70947;DHT22;58605;48.700;8.760;2022-11-11T02:14:59;4.10;99.90
70947;DHT22;58605;48.700;8.760;2022-11-11T02:17:27;4.20;99.90
70947;DHT22;58605;48.700;8.760;2022-11-11T02:19:56;4.10;99.90
70947;DHT22;58605;48.700;8.760;2022-11-11T02:22:30;4.00;99.90
70947;DHT22;58605;48.700;8.760;2022-11-11T02:24:58;3.80;99.90
70947;DHT22;58605;48.700;8.760;2022-11-11T02:27:27;3.80;99.90
70947;DHT22;58605;48.700;8.760;2022-11-11T02:29:56;3.70;99.90
70947;DHT22;58605;48.700;8.760;2022-11-11T02:32:22;3.70;99.90
70947;DHT22;58605;48.700;8.760;2022-11-11T02:34:49;3.70;99.90
70947;DHT22;58605;48.700;8.760;2022-11-11T02:37:19;3.70;99.90
70947;DHT22;58605;48.700;8.760;2022-11-11T02:39:47;3.70;99.90
70947;DHT22;58605;48.700;8.760;2022-11-11T02:42:15;3.70;99.90
70947;DHT22;58605;48.700;8.760;2022-11-11T02:44:42;3.60;99.90
70947;DHT22;58605;48.700;8.760;2022-11-11T02:47:09;3.60;99.90
70947;DHT22;58605;48.700;8.760;2022-11-11T02:49:35;3.80;99.90
70947;DHT22;58605;48.700;8.760;2022-11-11T02:52:01;3.90;99.90
70947;DHT22;58605;48.700;8.760;2022-11-11T02:54:27;3.90;99.90
70947;DHT22;58605;48.700;8.760;2022-11-11T02:56:53;3.90;99.90
70947;DHT22;58605;48.700;8.760;2022-11-11T02:59:36;3.90;99.90
70947;DHT22;58605;48.700;8.760;2022-11-11T03:02:02;3.80;99.90
70947;DHT22;58605;48.700;8.760;2022-11-11T03:04:28;3.70;99.90
70947;DHT22;58605;48.700;8.760;2022-11-11T03:06:54;3.60;99.90
70947;DHT22;58605;48.700;8.760;2022-11-11T03:09:20;3.60;99.90
70947;DHT22;58605;48.700;8.760;2022-11-11T03:11:46;3.50;99.90
70947;DHT22;58605;48.700;8.760;2022-11-11T03:14:12;3.50;99.90
70947;DHT22;58605;48.700;8.760;2022-11-11T03:16:40;3.40;99.90
70947;DHT22;58605;48.700;8.760;2022-11-11T03:19:24;3.30;99.90
70947;DHT22;58605;48.700;8.760;2022-11-11T03:21:50;3.30;99.90
70947;DHT22;58605;48.700;8.760;2022-11-11T03:24:16;3.40;99.90
70947;DHT22;58605;48.700;8.760;2022-11-11T03:26:42;3.30;99.90
70947;DHT22;58605;48.700;8.760;2022-11-11T03:29:08;3.20;99.90
70947;DHT22;58605;48.700;8.760;2022-11-11T03:31:34;3.20;99.90
70947;DHT22;58605;48.700;8.760;2022-11-11T03:34:03;3.20;99.90
70947;DHT22;58605;48.700;8.760;2022-11-11T03:36:58;3.20;99.90
70947;DHT22;58605;48.700;8.760;2022-11-11T03:39:43;3.20;99.90
70947;DHT22;58605;48.700;8.760;2022-11-11T03:42:09;3.20;99.90
70947;DHT22;58605;48.700;8.760;2022-11-11T03:44:35;3.10;99.90
70947;DHT22;58605;48.700;8.760;2022-11-11T03:47:01;3.10;99.90
70947;DHT22;58605;48.700;8.760;2022-11-11T03:49:28;3.10;99.90
70947;DHT22;58605;48.700;8.760;2022-11-11T03:51:54;3.10;99.90
70947;DHT22;58605;48.700;8.760;2022-11-11T03:54:20;3.00;99.90
70947;DHT22;58605;48.700;8.760;2022-11-11T03:56:46;2.90;99.90
70947;DHT22;58605;48.700;8.760;2022-11-11T03:59:12;3.00;99.90
70947;DHT22;58605;48.700;8.760;2022-11-11T04:01:38;3.00;99.90
70947;DHT22;58605;48.700;8.760;2022-11-11T04:04:22;3.10;99.90
70947;DHT22;58605;48.700;8.760;2022-11-11T04:07:10;3.10;99.90
70947;DHT22;58605;48.700;8.760;2022-11-11T04:09:55;3.10;99.90
70947;DHT22;58605;48.700;8.760;2022-11-11T04:12:40;3.10;99.90
70947;DHT22;58605;48.700;8.760;2022-11-11T04:15:25;3.10;99.90
70947;DHT22;58605;48.700;8.760;2022-11-11T04:18:09;3.00;99.90
70947;DHT22;58605;48.700;8.760;2022-11-11T04:20:35;2.90;99.90
70947;DHT22;58605;48.700;8.760;2022-11-11T04:23:21;2.80;99.90
70947;DHT22;58605;48.700;8.760;2022-11-11T04:25:47;2.90;99.90
70947;DHT22;58605;48.700;8.760;2022-11-11T04:28:13;2.90;99.90
70947;DHT22;58605;48.700;8.760;2022-11-11T04:30:58;3.00;99.90
70947;DHT22;58605;48.700;8.760;2022-11-11T04:33:24;3.00;99.90
70947;DHT22;58605;48.700;8.760;2022-11-11T04:35:50;3.10;99.90
70947;DHT22;58605;48.700;8.760;2022-11-11T04:38:16;3.20;99.90
70947;DHT22;58605;48.700;8.760;2022-11-11T04:41:01;3.20;99.90
70947;DHT22;58605;48.700;8.760;2022-11-11T04:43:28;3.20;99.90
70947;DHT22;58605;48.700;8.760;2022-11-11T04:45:57;3.30;99.90
70947;DHT22;58605;48.700;8.760;2022-11-11T04:48:23;3.20;99.90
70947;DHT22;58605;48.700;8.760;2022-11-11T04:50:49;3.10;99.90
70947;DHT22;58605;48.700;8.760;2022-11-11T04:53:15;2.90;99.90
70947;DHT22;58605;48.700;8.760;2022-11-11T04:55:42;2.80;99.90
70947;DHT22;58605;48.700;8.760;2022-11-11T04:58:30;2.70;99.90
70947;DHT22;58605;48.700;8.760;2022-11-11T05:00:57;2.70;99.90
70947;DHT22;58605;48.700;8.760;2022-11-11T05:03:23;2.70;99.90
70947;DHT22;58605;48.700;8.760;2022-11-11T05:05:50;2.50;99.90
70947;DHT22;58605;48.700;8.760;2022-11-11T05:08:37;2.50;99.90
70947;DHT22;58605;48.700;8.760;2022-11-11T05:11:22;2.60;99.90
70947;DHT22;58605;48.700;8.760;2022-11-11T05:13:50;2.70;99.90
70947;DHT22;58605;48.700;8.760;2022-11-11T05:16:38;2.80;99.90
70947;DHT22;58605;48.700;8.760;2022-11-11T05:19:23;2.70;99.90
70947;DHT22;58605;48.700;8.760;2022-11-11T05:22:12;2.80;99.90
70947;DHT22;58605;48.700;8.760;2022-11-11T05:24:39;2.70;99.90
70947;DHT22;58605;48.700;8.760;2022-11-11T05:27:23;2.70;99.90
70947;DHT22;58605;48.700;8.760;2022-11-11T05:29:51;2.80;99.90
70947;DHT22;58605;48.700;8.760;2022-11-11T05:32:17;2.80;99.90
70947;DHT22;58605;48.700;8.760;2022-11-11T05:34:44;2.70;99.90
70947;DHT22;58605;48.700;8.760;2022-11-11T05:37:10;2.70;99.90
70947;DHT22;58605;48.700;8.760;2022-11-11T05:39:36;2.70;99.90
70947;DHT22;58605;48.700;8.760;2022-11-11T05:42:02;2.60;99.90
70947;DHT22;58605;48.700;8.760;2022-11-11T05:44:28;2.50;99.90
70947;DHT22;58605;48.700;8.760;2022-11-11T05:46:56;2.40;99.90
70947;DHT22;58605;48.700;8.760;2022-11-11T05:49:22;2.40;99.90
70947;DHT22;58605;48.700;8.760;2022-11-11T05:51:50;2.40;99.90
70947;DHT22;58605;48.700;8.760;2022-11-11T05:54:17;2.50;99.90
70947;DHT22;58605;48.700;8.760;2022-11-11T05:56:43;2.50;99.90
70947;DHT22;58605;48.700;8.760;2022-11-11T05:59:10;2.50;99.90
70947;DHT22;58605;48.700;8.760;2022-11-11T06:01:36;2.50;99.90
70947;DHT22;58605;48.700;8.760;2022-11-11T06:04:04;2.60;99.90
70947;DHT22;58605;48.700;8.760;2022-11-11T06:06:30;2.60;99.90
70947;DHT22;58605;48.700;8.760;2022-11-11T06:08:57;2.60;99.90
70947;DHT22;58605;48.700;8.760;2022-11-11T06:11:23;2.60;99.90
70947;DHT22;58605;48.700;8.760;2022-11-11T06:13:49;2.70;99.90
70947;DHT22;58605;48.700;8.760;2022-11-11T06:16:15;2.60;99.90
70947;DHT22;58605;48.700;8.760;2022-11-11T06:18:41;2.60;99.90
70947;DHT22;58605;48.700;8.760;2022-11-11T06:21:09;2.60;99.90
70947;DHT22;58605;48.700;8.760;2022-11-11T06:23:35;2.80;99.90
70947;DHT22;58605;48.700;8.760;2022-11-11T06:26:01;2.90;99.90
70947;DHT22;58605;48.700;8.760;2022-11-11T06:28:42;3.00;99.90
70947;DHT22;58605;48.700;8.760;2022-11-11T06:31:10;3.20;99.90
70947;DHT22;58605;48.700;8.760;2022-11-11T06:33:36;3.10;99.90
70947;DHT22;58605;48.700;8.760;2022-11-11T06:36:03;3.10;99.90
70947;DHT22;58605;48.700;8.760;2022-11-11T06:38:32;3.10;99.90
70947;DHT22;58605;48.700;8.760;2022-11-11T06:40:58;3.10;99.90
70947;DHT22;58605;48.700;8.760;2022-11-11T06:43:24;3.00;99.90
70947;DHT22;58605;48.700;8.760;2022-11-11T06:45:51;3.00;99.90
70947;DHT22;58605;48.700;8.760;2022-11-11T06:48:17;2.90;99.90
70947;DHT22;58605;48.700;8.760;2022-11-11T06:50:43;2.90;99.90
70947;DHT22;58605;48.700;8.760;2022-11-11T06:53:11;2.90;99.90
70947;DHT22;58605;48.700;8.760;2022-11-11T06:55:39;2.90;99.90
70947;DHT22;58605;48.700;8.760;2022-11-11T06:58:06;2.80;99.90
70947;DHT22;58605;48.700;8.760;2022-11-11T07:00:32;2.80;99.90
70947;DHT22;58605;48.700;8.760;2022-11-11T07:02:58;2.90;99.90
70947;DHT22;58605;48.700;8.760;2022-11-11T07:05:24;2.90;99.90
70947;DHT22;58605;48.700;8.760;2022-11-11T07:07:50;2.90;99.90
70947;DHT22;58605;48.700;8.760;2022-11-11T07:10:16;2.80;99.90
70947;DHT22;58605;48.700;8.760;2022-11-11T07:12:44;2.80;99.90
70947;DHT22;58605;48.700;8.760;2022-11-11T07:15:10;2.80;99.90
70947;DHT22;58605;48.700;8.760;2022-11-11T07:17:36;2.70;99.90
70947;DHT22;58605;48.700;8.760;2022-11-11T07:20:03;2.60;99.90
70947;DHT22;58605;48.700;8.760;2022-11-11T07:22:30;2.50;99.90
70947;DHT22;58605;48.700;8.760;2022-11-11T07:24:55;2.50;99.90
70947;DHT22;58605;48.700;8.760;2022-11-11T07:27:21;2.50;99.90
70947;DHT22;58605;48.700;8.760;2022-11-11T07:29:49;2.60;99.90
70947;DHT22;58605;48.700;8.760;2022-11-11T07:32:15;2.70;99.90
70947;DHT22;58605;48.700;8.760;2022-11-11T07:34:42;2.80;99.90
70947;DHT22;58605;48.700;8.760;2022-11-11T07:37:09;2.90;99.90
70947;DHT22;58605;48.700;8.760;2022-11-11T07:39:35;3.00;99.90
70947;DHT22;58605;48.700;8.760;2022-11-11T07:42:01;3.20;99.90
70947;DHT22;58605;48.700;8.760;2022-11-11T07:44:27;3.30;99.90
70947;DHT22;58605;48.700;8.760;2022-11-11T07:46:54;3.40;99.90
70947;DHT22;58605;48.700;8.760;2022-11-11T07:49:20;3.50;99.90
70947;DHT22;58605;48.700;8.760;2022-11-11T07:51:46;3.40;99.90
70947;DHT22;58605;48.700;8.760;2022-11-11T07:54:12;3.50;99.90
70947;DHT22;58605;48.700;8.760;2022-11-11T07:56:38;3.50;99.90
70947;DHT22;58605;48.700;8.760;2022-11-11T07:59:04;3.50;99.90
70947;DHT22;58605;48.700;8.760;2022-11-11T08:01:31;3.50;99.90
70947;DHT22;58605;48.700;8.760;2022-11-11T08:03:58;3.50;99.90
70947;DHT22;58605;48.700;8.760;2022-11-11T08:06:24;3.50;99.90
70947;DHT22;58605;48.700;8.760;2022-11-11T08:08:50;3.50;99.90
70947;DHT22;58605;48.700;8.760;2022-11-11T08:11:16;3.60;99.90
70947;DHT22;58605;48.700;8.760;2022-11-11T08:14:02;3.80;99.90
70947;DHT22;58605;48.700;8.760;2022-11-11T08:16:35;3.80;99.90
70947;DHT22;58605;48.700;8.760;2022-11-11T08:19:03;3.80;99.90
70947;DHT22;58605;48.700;8.760;2022-11-11T08:21:29;3.80;99.90
70947;DHT22;58605;48.700;8.760;2022-11-11T08:23:55;3.80;99.90
70947;DHT22;58605;48.700;8.760;2022-11-11T08:26:22;3.80;99.90
70947;DHT22;58605;48.700;8.760;2022-11-11T08:28:50;4.00;99.90
70947;DHT22;58605;48.700;8.760;2022-11-11T08:31:16;4.10;99.90
70947;DHT22;58605;48.700;8.760;2022-11-11T08:33:42;4.20;99.90
70947;DHT22;58605;48.700;8.760;2022-11-11T08:36:10;4.40;99.90
70947;DHT22;58605;48.700;8.760;2022-11-11T08:38:37;4.50;99.90
70947;DHT22;58605;48.700;8.760;2022-11-11T08:41:05;4.60;99.90
70947;DHT22;58605;48.700;8.760;2022-11-11T08:43:32;4.70;99.90
70947;DHT22;58605;48.700;8.760;2022-11-11T08:45:58;4.70;99.90
70947;DHT22;58605;48.700;8.760;2022-11-11T08:48:24;4.80;99.90
70947;DHT22;58605;48.700;8.760;2022-11-11T08:50:52;4.90;99.90
70947;DHT22;58605;48.700;8.760;2022-11-11T08:53:19;5.00;99.90
70947;DHT22;58605;48.700;8.760;2022-11-11T08:55:46;5.00;99.90
70947;DHT22;58605;48.700;8.760;2022-11-11T08:58:18;5.10;99.90
70947;DHT22;58605;48.700;8.760;2022-11-11T09:00:45;5.10;99.90
70947;DHT22;58605;48.700;8.760;2022-11-11T09:03:12;5.10;99.90
70947;DHT22;58605;48.700;8.760;2022-11-11T09:05:39;5.20;99.90
70947;DHT22;58605;48.700;8.760;2022-11-11T09:08:06;5.30;99.90
70947;DHT22;58605;48.700;8.760;2022-11-11T09:10:34;5.50;99.90
70947;DHT22;58605;48.700;8.760;2022-11-11T09:13:01;5.60;99.90
70947;DHT22;58605;48.700;8.760;2022-11-11T09:15:28;5.80;99.90
70947;DHT22;58605;48.700;8.760;2022-11-11T09:17:54;5.80;99.90
70947;DHT22;58605;48.700;8.760;2022-11-11T09:20:20;5.70;99.90
70947;DHT22;58605;48.700;8.760;2022-11-11T09:22:47;5.70;99.90
70947;DHT22;58605;48.700;8.760;2022-11-11T09:25:14;5.80;99.90
70947;DHT22;58605;48.700;8.760;2022-11-11T09:27:42;5.80;99.90
70947;DHT22;58605;48.700;8.760;2022-11-11T09:30:09;5.90;99.90
70947;DHT22;58605;48.700;8.760;2022-11-11T09:32:36;6.00;99.90
70947;DHT22;58605;48.700;8.760;2022-11-11T09:35:02;6.10;99.90
70947;DHT22;58605;48.700;8.760;2022-11-11T09:37:28;6.40;99.90
70947;DHT22;58605;48.700;8.760;2022-11-11T09:39:54;6.60;99.90
70947;DHT22;58605;48.700;8.760;2022-11-11T09:42:32;6.80;99.90
70947;DHT22;58605;48.700;8.760;2022-11-11T09:45:18;7.00;99.90
70947;DHT22;58605;48.700;8.760;2022-11-11T09:47:51;7.20;99.90
70947;DHT22;58605;48.700;8.760;2022-11-11T09:50:22;7.40;99.90
70947;DHT22;58605;48.700;8.760;2022-11-11T09:52:55;7.70;99.90
70947;DHT22;58605;48.700;8.760;2022-11-11T09:55:28;7.90;99.90
70947;DHT22;58605;48.700;8.760;2022-11-11T09:57:57;8.10;99.90
70947;DHT22;58605;48.700;8.760;2022-11-11T10:00:30;8.20;99.90
70947;DHT22;58605;48.700;8.760;2022-11-11T10:03:03;8.30;99.90
70947;DHT22;58605;48.700;8.760;2022-11-11T10:05:36;8.30;99.90
70947;DHT22;58605;48.700;8.760;2022-11-11T10:08:10;8.30;99.90
70947;DHT22;58605;48.700;8.760;2022-11-11T10:10:42;8.40;99.90
70947;DHT22;58605;48.700;8.760;2022-11-11T10:13:14;8.50;99.90
70947;DHT22;58605;48.700;8.760;2022-11-11T10:15:54;8.70;99.90
70947;DHT22;58605;48.700;8.760;2022-11-11T10:18:41;8.90;99.90
70947;DHT22;58605;48.700;8.760;2022-11-11T10:21:13;9.00;99.90
70947;DHT22;58605;48.700;8.760;2022-11-11T10:23:40;9.00;99.90
70947;DHT22;58605;48.700;8.760;2022-11-11T10:26:13;8.80;99.90
70947;DHT22;58605;48.700;8.760;2022-11-11T10:28:42;8.60;99.90
70947;DHT22;58605;48.700;8.760;2022-11-11T10:31:14;8.50;99.90
70947;DHT22;58605;48.700;8.760;2022-11-11T10:33:45;8.50;99.90
70947;DHT22;58605;48.700;8.760;2022-11-11T10:36:17;8.40;99.90
70947;DHT22;58605;48.700;8.760;2022-11-11T10:38:50;8.30;99.90
70947;DHT22;58605;48.700;8.760;2022-11-11T10:41:20;8.30;99.90
70947;DHT22;58605;48.700;8.760;2022-11-11T10:43:48;8.30;99.90
70947;DHT22;58605;48.700;8.760;2022-11-11T10:46:18;8.40;99.90
70947;DHT22;58605;48.700;8.760;2022-11-11T10:48:51;8.40;99.90
70947;DHT22;58605;48.700;8.760;2022-11-11T10:51:19;8.40;99.90
70947;DHT22;58605;48.700;8.760;2022-11-11T10:53:53;8.80;99.90
70947;DHT22;58605;48.700;8.760;2022-11-11T10:56:26;8.70;99.90
70947;DHT22;58605;48.700;8.760;2022-11-11T10:59:00;8.50;99.90
70947;DHT22;58605;48.700;8.760;2022-11-11T11:01:33;8.40;99.90
70947;DHT22;58605;48.700;8.760;2022-11-11T11:04:03;8.40;99.90
70947;DHT22;58605;48.700;8.760;2022-11-11T11:06:33;8.30;99.90
70947;DHT22;58605;48.700;8.760;2022-11-11T11:09:05;8.30;99.90
70947;DHT22;58605;48.700;8.760;2022-11-11T11:11:37;8.30;99.90
70947;DHT22;58605;48.700;8.760;2022-11-11T11:14:09;8.30;99.90
70947;DHT22;58605;48.700;8.760;2022-11-11T11:16:41;8.30;99.90
70947;DHT22;58605;48.700;8.760;2022-11-11T11:19:14;8.30;99.90
70947;DHT22;58605;48.700;8.760;2022-11-11T11:21:50;8.30;99.90
70947;DHT22;58605;48.700;8.760;2022-11-11T11:24:21;8.20;99.90
70947;DHT22;58605;48.700;8.760;2022-11-11T11:26:49;8.30;99.90
70947;DHT22;58605;48.700;8.760;2022-11-11T11:29:26;8.30;99.90
70947;DHT22;58605;48.700;8.760;2022-11-11T11:31:55;8.30;99.90
70947;DHT22;58605;48.700;8.760;2022-11-11T11:34:21;8.30;99.90
70947;DHT22;58605;48.700;8.760;2022-11-11T11:37:06;8.30;99.90
70947;DHT22;58605;48.700;8.760;2022-11-11T11:39:33;8.40;99.90
70947;DHT22;58605;48.700;8.760;2022-11-11T11:41:59;8.40;99.90
70947;DHT22;58605;48.700;8.760;2022-11-11T11:44:26;8.40;99.90
70947;DHT22;58605;48.700;8.760;2022-11-11T11:47:01;8.40;99.90
70947;DHT22;58605;48.700;8.760;2022-11-11T11:49:40;8.40;99.90
70947;DHT22;58605;48.700;8.760;2022-11-11T11:52:13;8.40;99.90
70947;DHT22;58605;48.700;8.760;2022-11-11T11:54:52;8.40;99.90
70947;DHT22;58605;48.700;8.760;2022-11-11T11:57:30;8.40;99.90
70947;DHT22;58605;48.700;8.760;2022-11-11T12:00:03;8.40;99.90
70947;DHT22;58605;48.700;8.760;2022-11-11T12:02:43;8.40;99.90
70947;DHT22;58605;48.700;8.760;2022-11-11T12:05:16;8.40;99.90
70947;DHT22;58605;48.700;8.760;2022-11-11T12:08:00;8.40;99.90
70947;DHT22;58605;48.700;8.760;2022-11-11T12:10:38;8.40;99.90
70947;DHT22;58605;48.700;8.760;2022-11-11T12:13:14;8.40;99.90
70947;DHT22;58605;48.700;8.760;2022-11-11T12:15:47;8.40;99.90
70947;DHT22;58605;48.700;8.760;2022-11-11T12:18:37;8.40;99.90
70947;DHT22;58605;48.700;8.760;2022-11-11T12:21:08;8.40;99.90
70947;DHT22;58605;48.700;8.760;2022-11-11T12:23:50;8.40;99.90
70947;DHT22;58605;48.700;8.760;2022-11-11T12:26:23;8.50;99.90
70947;DHT22;58605;48.700;8.760;2022-11-11T12:29:05;8.50;99.90
70947;DHT22;58605;48.700;8.760;2022-11-11T12:31:47;8.50;99.90
70947;DHT22;58605;48.700;8.760;2022-11-11T12:34:32;8.50;99.90
70947;DHT22;58605;48.700;8.760;2022-11-11T12:37:06;8.50;99.90
70947;DHT22;58605;48.700;8.760;2022-11-11T12:39:51;8.50;99.90
70947;DHT22;58605;48.700;8.760;2022-11-11T12:42:32;8.50;99.90
70947;DHT22;58605;48.700;8.760;2022-11-11T12:45:17;8.50;99.90
70947;DHT22;58605;48.700;8.760;2022-11-11T12:47:51;8.50;99.90
70947;DHT22;58605;48.700;8.760;2022-11-11T12:50:27;8.50;99.90
70947;DHT22;58605;48.700;8.760;2022-11-11T12:53:08;8.50;99.90
70947;DHT22;58605;48.700;8.760;2022-11-11T12:55:42;8.50;99.90
70947;DHT22;58605;48.700;8.760;2022-11-11T12:58:20;8.50;99.90
70947;DHT22;58605;48.700;8.760;2022-11-11T13:01:03;8.50;99.90
70947;DHT22;58605;48.700;8.760;2022-11-11T13:03:48;8.50;99.90
70947;DHT22;58605;48.700;8.760;2022-11-11T13:09:14;8.50;99.90
70947;DHT22;58605;48.700;8.760;2022-11-11T13:11:54;8.60;99.90
70947;DHT22;58605;48.700;8.760;2022-11-11T13:14:49;8.60;99.90
70947;DHT22;58605;48.700;8.760;2022-11-11T13:17:16;8.60;99.90
70947;DHT22;58605;48.700;8.760;2022-11-11T13:19:44;8.60;99.90
70947;DHT22;58605;48.700;8.760;2022-11-11T13:22:24;8.60;99.90
70947;DHT22;58605;48.700;8.760;2022-11-11T13:24:51;8.60;99.90
70947;DHT22;58605;48.700;8.760;2022-11-11T13:27:30;8.60;99.90
70947;DHT22;58605;48.700;8.760;2022-11-11T13:30:16;8.70;99.90
70947;DHT22;58605;48.700;8.760;2022-11-11T13:32:49;8.70;99.90
70947;DHT22;58605;48.700;8.760;2022-11-11T13:35:21;8.70;99.90
70947;DHT22;58605;48.700;8.760;2022-11-11T13:37:50;8.70;99.90
70947;DHT22;58605;48.700;8.760;2022-11-11T13:40:33;8.80;99.90
70947;DHT22;58605;48.700;8.760;2022-11-11T13:43:01;8.80;99.90
70947;DHT22;58605;48.700;8.760;2022-11-11T13:45:31;8.70;99.90
70947;DHT22;58605;48.700;8.760;2022-11-11T13:47:58;8.70;99.90
70947;DHT22;58605;48.700;8.760;2022-11-11T13:50:27;8.70;99.90
70947;DHT22;58605;48.700;8.760;2022-11-11T13:52:58;8.80;99.90
70947;DHT22;58605;48.700;8.760;2022-11-11T13:55:30;8.70;99.90
70947;DHT22;58605;48.700;8.760;2022-11-11T13:57:58;8.80;99.90
70947;DHT22;58605;48.700;8.760;2022-11-11T14:00:34;8.80;99.90
70947;DHT22;58605;48.700;8.760;2022-11-11T14:03:30;8.80;99.90
70947;DHT22;58605;48.700;8.760;2022-11-11T14:09:04;8.80;99.90
70947;DHT22;58605;48.700;8.760;2022-11-11T14:11:32;8.80;99.90
70947;DHT22;58605;48.700;8.760;2022-11-11T14:17:12;8.80;99.90
70947;DHT22;58605;48.700;8.760;2022-11-11T14:19:45;8.90;99.90
70947;DHT22;58605;48.700;8.760;2022-11-11T14:22:29;8.90;99.90
70947;DHT22;58605;48.700;8.760;2022-11-11T14:25:10;8.80;99.90
70947;DHT22;58605;48.700;8.760;2022-11-11T14:27:43;8.80;99.90
70947;DHT22;58605;48.700;8.760;2022-11-11T14:30:12;8.80;99.90
70947;DHT22;58605;48.700;8.760;2022-11-11T14:32:57;8.90;99.90
70947;DHT22;58605;48.700;8.760;2022-11-11T14:35:34;8.90;99.90
70947;DHT22;58605;48.700;8.760;2022-11-11T14:38:20;8.90;99.90
70947;DHT22;58605;48.700;8.760;2022-11-11T14:40:51;8.90;99.90
70947;DHT22;58605;48.700;8.760;2022-11-11T14:43:33;8.90;99.90
70947;DHT22;58605;48.700;8.760;2022-11-11T14:46:02;9.00;99.90
70947;DHT22;58605;48.700;8.760;2022-11-11T14:48:51;9.00;99.90
70947;DHT22;58605;48.700;8.760;2022-11-11T14:51:45;9.00;99.90
70947;DHT22;58605;48.700;8.760;2022-11-11T14:57:20;9.00;99.90
70947;DHT22;58605;48.700;8.760;2022-11-11T14:59:47;9.00;99.90
70947;DHT22;58605;48.700;8.760;2022-11-11T15:02:22;9.00;99.90
70947;DHT22;58605;48.700;8.760;2022-11-11T15:04:50;9.00;99.90
70947;DHT22;58605;48.700;8.760;2022-11-11T15:07:24;9.10;99.90
70947;DHT22;58605;48.700;8.760;2022-11-11T15:10:09;9.10;99.90
70947;DHT22;58605;48.700;8.760;2022-11-11T15:12:48;9.10;99.90
70947;DHT22;58605;48.700;8.760;2022-11-11T15:15:22;9.10;99.90
70947;DHT22;58605;48.700;8.760;2022-11-11T15:18:00;9.10;99.90
70947;DHT22;58605;48.700;8.760;2022-11-11T15:21:03;9.20;99.90
70947;DHT22;58605;48.700;8.760;2022-11-11T15:23:34;9.30;99.90
70947;DHT22;58605;48.700;8.760;2022-11-11T15:26:09;9.30;99.90
70947;DHT22;58605;48.700;8.760;2022-11-11T15:29:04;9.20;99.90
70947;DHT22;58605;48.700;8.760;2022-11-11T15:31:40;9.20;99.90
70947;DHT22;58605;48.700;8.760;2022-11-11T15:34:21;9.20;99.90
70947;DHT22;58605;48.700;8.760;2022-11-11T15:36:55;9.20;99.90
70947;DHT22;58605;48.700;8.760;2022-11-11T15:39:37;9.20;99.90
70947;DHT22;58605;48.700;8.760;2022-11-11T15:42:04;9.30;99.90
70947;DHT22;58605;48.700;8.760;2022-11-11T15:44:34;9.30;99.90
70947;DHT22;58605;48.700;8.760;2022-11-11T15:47:00;9.40;99.90
70947;DHT22;58605;48.700;8.760;2022-11-11T15:49:39;9.40;99.90
70947;DHT22;58605;48.700;8.760;2022-11-11T15:52:08;9.40;99.90
70947;DHT22;58605;48.700;8.760;2022-11-11T15:54:45;9.40;99.90
70947;DHT22;58605;48.700;8.760;2022-11-11T15:57:21;9.40;99.90
70947;DHT22;58605;48.700;8.760;2022-11-11T15:59:49;9.40;99.90
70947;DHT22;58605;48.700;8.760;2022-11-11T16:02:18;9.40;99.90
70947;DHT22;58605;48.700;8.760;2022-11-11T16:04:51;9.40;99.90
70947;DHT22;58605;48.700;8.760;2022-11-11T16:07:20;9.50;99.90
70947;DHT22;58605;48.700;8.760;2022-11-11T16:09:48;9.50;99.90
70947;DHT22;58605;48.700;8.760;2022-11-11T16:12:18;9.50;99.90
70947;DHT22;58605;48.700;8.760;2022-11-11T16:14:49;9.50;99.90
70947;DHT22;58605;48.700;8.760;2022-11-11T16:17:18;9.50;99.90
70947;DHT22;58605;48.700;8.760;2022-11-11T16:19:45;9.50;99.90
70947;DHT22;58605;48.700;8.760;2022-11-11T16:22:15;9.50;99.90
70947;DHT22;58605;48.700;8.760;2022-11-11T16:24:42;9.60;99.90
70947;DHT22;58605;48.700;8.760;2022-11-11T16:27:14;9.60;99.90